Time;durP1;ratioP1;P1;durP2;ratioP2;P2;SDS_P1;SDS_P2;PMS_P1;PMS_P2;Temp;Humidity;BMP_temperature;BMP_pressure;BME280_temperature;BME280_humidity;BME280_pressure;Samples;Min_cycle;Max_cycle;Signal;HPM_P1;HPM_P2
2021/06/24 00:01:51;;;;;;;11.23;8.48;;;18.50;99.90;;;;;;5025628;28;20072;-81
2021/06/24 00:04:16;;;;;;;14.48;9.27;;;18.50;99.90;;;;;;5027295;28;20029;-82
2021/06/24 00:06:42;;;;;;;13.63;9.27;;;18.60;99.90;;;;;;5025943;28;20507;-82
2021/06/24 00:09:08;;;;;;;11.10;8.48;;;18.60;99.90;;;;;;5023758;28;20026;-80
2021/06/24 00:11:34;;;;;;;13.25;8.65;;;18.50;99.90;;;;;;5015836;28;20026;-80
2021/06/24 00:14:00;;;;;;;10.52;8.75;;;18.60;99.90;;;;;;5020936;28;20052;-82
2021/06/24 00:16:26;;;;;;;12.10;9.27;;;18.60;99.90;;;;;;5022380;28;19913;-82
2021/06/24 00:18:51;;;;;;;12.82;9.02;;;18.50;99.90;;;;;;5018679;28;20148;-80
2021/06/24 00:21:17;;;;;;;11.40;8.82;;;18.50;99.90;;;;;;5013315;28;20045;-80
2021/06/24 00:23:43;;;;;;;11.45;9.05;;;18.50;99.90;;;;;;5014884;28;20000;-81
2021/06/24 00:26:08;;;;;;;;;;;18.60;99.90;;;;;;5014844;28;19952;-80
2021/06/24 00:28:34;;;;;;;10.50;8.80;;;18.60;99.90;;;;;;5013288;28;20083;-81
2021/06/24 00:31:00;;;;;;;11.30;9.20;;;18.60;99.90;;;;;;5017546;28;19932;-80
2021/06/24 00:33:25;;;;;;;;;;;18.50;99.90;;;;;;5020559;28;20066;-82
2021/06/24 00:35:51;;;;;;;;;;;18.50;99.90;;;;;;5022070;28;19917;-81
2021/06/24 00:38:17;;;;;;;;;;;18.50;99.90;;;;;;5020013;28;19906;-81
2021/06/24 00:40:43;;;;;;;;;;;18.50;99.90;;;;;;5021239;28;24060;-81
2021/06/24 00:43:11;;;;;;;;;;;18.50;99.90;;;;;;5021345;28;19952;-82
2021/06/24 00:45:38;;;;;;;13.07;8.88;;;18.50;99.90;;;;;;5021854;28;19916;-82
2021/06/24 00:48:06;;;;;;;10.88;8.93;;;18.50;99.90;;;;;;5020713;28;20124;-81
2021/06/24 00:50:32;;;;;;;11.05;8.20;;;18.50;99.90;;;;;;5021257;28;20026;-82
2021/06/24 00:52:58;;;;;;;9.75;8.43;;;18.50;99.90;;;;;;5019820;28;20026;-81
2021/06/24 00:58:27;;;;;;;12.38;8.95;;;18.50;99.90;;;;;;5022448;28;19912;-81
2021/06/24 01:00:56;;;;;;;13.73;8.63;;;18.60;99.90;;;;;;5020148;28;20393;-82
2021/06/24 01:03:22;;;;;;;13.13;9.27;;;18.60;99.90;;;;;;5020520;28;20026;-81
2021/06/24 01:05:48;;;;;;;14.50;9.10;;;18.60;99.90;;;;;;5020130;28;20030;-82
2021/06/24 01:08:15;;;;;;;12.48;9.23;;;18.60;99.90;;;;;;5021218;28;20429;-81
2021/06/24 01:10:43;;;;;;;10.43;8.57;;;18.60;99.90;;;;;;5020160;28;20042;-82
2021/06/24 01:13:09;;;;;;;;;;;18.60;99.90;;;;;;5019460;28;19905;-82
2021/06/24 01:15:36;;;;;;;11.75;8.25;;;18.60;99.90;;;;;;5020908;28;19910;-82
2021/06/24 01:18:01;;;;;;;9.38;7.80;;;18.60;99.90;;;;;;5018822;28;19909;-82
2021/06/24 01:20:34;;;;;;;9.57;8.20;;;18.60;99.90;;;;;;5015273;28;20000;-81
2021/06/24 01:23:01;;;;;;;10.50;8.50;;;18.60;99.90;;;;;;5018636;28;20055;-81
2021/06/24 01:25:26;;;;;;;;;;;18.60;99.90;;;;;;5023244;28;20051;-82
2021/06/24 01:28:00;;;;;;;9.50;7.80;;;18.50;99.90;;;;;;5022694;28;20076;-82
2021/06/24 01:30:26;;;;;;;;;;;18.50;99.90;;;;;;5023439;28;19905;-82
2021/06/24 01:32:52;;;;;;;;;;;18.50;99.90;;;;;;5019990;28;19956;-81
2021/06/24 01:35:21;;;;;;;;;;;18.50;99.90;;;;;;5011313;28;25147;-81
2021/06/24 01:37:48;;;;;;;;;;;18.40;99.90;;;;;;5012304;28;19905;-80
2021/06/24 01:40:14;;;;;;;;;;;18.30;99.90;;;;;;5012977;28;24064;-80
2021/06/24 01:42:40;;;;;;;;;;;18.20;99.90;;;;;;5013315;28;24072;-80
2021/06/24 01:45:05;;;;;;;;;;;18.20;99.90;;;;;;5012186;28;19906;-80
2021/06/24 01:47:31;;;;;;;;;;;18.20;99.90;;;;;;5012249;28;20265;-80
2021/06/24 01:49:56;;;;;;;;;;;18.10;99.90;;;;;;5011585;28;24052;-80
2021/06/24 01:52:22;;;;;;;;;;;18.10;99.90;;;;;;5011055;28;20008;-81
2021/06/24 01:54:47;;;;;;;;;;;18.20;99.90;;;;;;5010851;28;19964;-80
2021/06/24 01:57:15;;;;;;;;;;;18.00;99.90;;;;;;5011726;28;25132;-80
2021/06/24 01:59:41;;;;;;;;;;;18.00;99.90;;;;;;5012854;28;20386;-80
2021/06/24 02:02:06;;;;;;;;;;;17.80;99.90;;;;;;5012399;28;19905;-80
2021/06/24 02:04:31;;;;;;;;;;;17.80;99.90;;;;;;5012966;28;19909;-80
2021/06/24 02:06:57;;;;;;;;;;;17.50;99.90;;;;;;5013081;28;19909;-80
2021/06/24 02:09:23;;;;;;;;;;;17.20;99.90;;;;;;5012565;28;19913;-80
2021/06/24 02:11:48;;;;;;;;;;;17.00;99.90;;;;;;5012496;28;20004;-80
2021/06/24 02:14:13;;;;;;;;;;;16.80;99.90;;;;;;5012513;28;19913;-80
2021/06/24 02:16:39;;;;;;;;;;;16.70;99.90;;;;;;5012342;28;19913;-80
2021/06/24 02:19:04;;;;;;;;;;;16.70;99.90;;;;;;5012408;28;19948;-80
2021/06/24 02:21:30;;;;;;;;;;;16.60;99.90;;;;;;5013760;28;19912;-80
2021/06/24 02:23:55;;;;;;;;;;;16.60;99.90;;;;;;5013592;28;19928;-80
2021/06/24 02:26:21;;;;;;;;;;;16.60;99.90;;;;;;5012412;28;19905;-80
2021/06/24 02:28:46;;;;;;;;;;;16.40;99.90;;;;;;5012281;28;19905;-80
2021/06/24 02:31:12;;;;;;;;;;;16.30;99.90;;;;;;5013457;28;19913;-80
2021/06/24 02:33:38;;;;;;;;;;;16.30;99.90;;;;;;5012039;28;19971;-80
2021/06/24 02:36:03;;;;;;;;;;;16.30;99.90;;;;;;5011595;28;19967;-80
2021/06/24 02:38:29;;;;;;;;;;;16.30;99.90;;;;;;5012360;28;20427;-80
2021/06/24 02:40:54;;;;;;;;;;;16.10;99.90;;;;;;5012038;28;19906;-80
2021/06/24 02:43:20;;;;;;;;;;;16.10;99.90;;;;;;5011855;28;20356;-80
2021/06/24 02:45:45;;;;;;;;;;;16.20;99.90;;;;;;5012294;28;19917;-80
2021/06/24 02:48:11;;;;;;;2.63;1.83;;;16.20;99.90;;;;;;5011773;28;19909;-80
2021/06/24 02:50:37;;;;;;;;;;;16.30;99.90;;;;;;5013251;28;20397;-80
2021/06/24 02:53:02;;;;;;;;;;;16.40;99.90;;;;;;5013720;28;20387;-80
2021/06/24 02:55:31;;;;;;;;;;;16.40;99.90;;;;;;5011953;28;20079;-80
2021/06/24 02:57:57;;;;;;;;;;;16.60;99.90;;;;;;5013025;28;19911;-80
2021/06/24 03:00:23;;;;;;;;;;;16.70;99.90;;;;;;5011929;28;19905;-80
2021/06/24 03:02:48;;;;;;;;;;;16.60;99.90;;;;;;5011607;28;19905;-80
2021/06/24 03:05:15;;;;;;;;;;;16.50;99.90;;;;;;5012139;28;19913;-80
2021/06/24 03:07:40;;;;;;;;;;;16.40;99.90;;;;;;5013080;28;19996;-80
2021/06/24 03:10:06;;;;;;;;;;;16.30;99.90;;;;;;5011711;28;20359;-80
2021/06/24 03:12:32;;;;;;;;;;;16.20;99.90;;;;;;5011522;28;20380;-80
2021/06/24 03:14:57;;;;;;;;;;;16.10;99.90;;;;;;5013014;28;20415;-80
2021/06/24 03:17:23;;;;;;;2.85;1.50;;;16.00;99.90;;;;;;5011635;28;19947;-80
2021/06/24 03:19:48;;;;;;;1.27;0.88;;;15.90;99.90;;;;;;5011405;28;20037;-79
2021/06/24 03:22:14;;;;;;;1.65;1.00;;;15.90;99.90;;;;;;5011103;28;20029;-80
2021/06/24 03:24:40;;;;;;;1.83;0.90;;;15.80;99.90;;;;;;5011099;28;20033;-80
2021/06/24 03:27:06;;;;;;;5.22;1.17;;;15.80;99.90;;;;;;5011228;28;20504;-80
2021/06/24 03:29:31;;;;;;;;;;;15.80;99.90;;;;;;5011346;28;20038;-80
2021/06/24 03:31:57;;;;;;;;;;;15.60;99.90;;;;;;5011313;28;19906;-80
2021/06/24 03:34:22;;;;;;;;;;;15.70;99.90;;;;;;5011604;28;19905;-80
2021/06/24 03:36:48;;;;;;;;;;;15.80;99.90;;;;;;5011336;28;19913;-80
2021/06/24 03:39:13;;;;;;;;;;;15.80;99.90;;;;;;5012654;28;19906;-80
2021/06/24 03:41:39;;;;;;;;;;;15.80;99.90;;;;;;5011441;28;19909;-80
2021/06/24 03:44:04;;;;;;;;;;;15.90;99.90;;;;;;5011461;28;19956;-80
2021/06/24 03:46:30;;;;;;;;;;;15.90;99.90;;;;;;5012024;28;20000;-80
2021/06/24 03:48:55;;;;;;;;;;;15.90;99.90;;;;;;5015238;28;19905;-79
2021/06/24 03:51:21;;;;;;;;;;;16.00;99.90;;;;;;5015333;28;20399;-80
2021/06/24 03:53:47;;;;;;;;;;;16.00;99.90;;;;;;5014734;28;20001;-80
2021/06/24 03:56:12;;;;;;;;;;;16.00;99.90;;;;;;5015202;28;20322;-80
2021/06/24 03:58:38;;;;;;;;;;;16.00;99.90;;;;;;5015956;28;19906;-80
2021/06/24 04:01:03;;;;;;;;;;;16.00;99.90;;;;;;5014974;28;19913;-80
2021/06/24 04:03:29;;;;;;;1.50;1.05;;;16.10;99.90;;;;;;5014230;28;19906;-80
2021/06/24 04:05:55;;;;;;;1.35;1.20;;;16.10;99.90;;;;;;5014557;28;20087;-80
2021/06/24 04:08:20;;;;;;;1.83;1.27;;;16.20;99.90;;;;;;5014348;28;20504;-79
2021/06/24 04:10:46;;;;;;;2.30;1.45;;;16.20;99.90;;;;;;5012385;28;20065;-80
2021/06/24 04:13:12;;;;;;;2.05;1.50;;;16.30;99.90;;;;;;5013955;28;20029;-80
2021/06/24 04:15:37;;;;;;;1.63;1.02;;;16.40;99.90;;;;;;5014281;28;20076;-80
2021/06/24 04:18:04;;;;;;;2.58;1.67;;;16.50;99.90;;;;;;5014537;28;20604;-79
2021/06/24 04:20:31;;;;;;;1.55;1.25;;;16.50;99.90;;;;;;5016692;28;20022;-80
2021/06/24 04:22:57;;;;;;;5.35;1.48;;;16.50;99.90;;;;;;5016993;28;20022;-80
2021/06/24 04:25:24;;;;;;;1.60;1.35;;;16.60;99.90;;;;;;5017260;28;20033;-80
2021/06/24 04:27:50;;;;;;;1.70;1.30;;;16.70;99.90;;;;;;5015800;28;20054;-80
2021/06/24 04:30:16;;;;;;;;;;;16.70;99.90;;;;;;5013128;28;20140;-80
2021/06/24 04:32:41;;;;;;;;;;;16.60;99.90;;;;;;5012502;28;25056;-80
2021/06/24 04:35:07;;;;;;;;;;;16.70;99.90;;;;;;5014395;28;20258;-80
2021/06/24 04:37:33;;;;;;;;;;;16.70;99.90;;;;;;5012391;28;19917;-79
2021/06/24 04:39:58;;;;;;;;;;;16.80;99.90;;;;;;5011637;28;24062;-80
2021/06/24 04:42:24;;;;;;;;;;;16.90;99.90;;;;;;5012531;28;19956;-80
2021/06/24 04:44:49;;;;;;;;;;;16.90;99.90;;;;;;5012565;28;19911;-79
2021/06/24 04:47:15;;;;;;;;;;;16.90;99.90;;;;;;5013357;28;19953;-79
2021/06/24 04:49:42;;;;;;;;;;;17.00;99.90;;;;;;5011967;28;19921;-80
2021/06/24 04:52:07;;;;;;;;;;;17.00;99.90;;;;;;5012084;28;19911;-80
2021/06/24 04:54:33;;;;;;;2.22;1.83;;;17.00;99.90;;;;;;5013455;28;19935;-80
2021/06/24 04:56:59;;;;;;;2.38;1.70;;;17.00;99.90;;;;;;5011930;28;20489;-79
2021/06/24 04:59:24;;;;;;;;;;;16.90;99.90;;;;;;5012002;28;20052;-80
2021/06/24 05:01:50;;;;;;;;;;;17.10;99.90;;;;;;5001163;28;19911;-79
2021/06/24 05:04:15;;;;;;;3.20;2.43;;;17.20;99.90;;;;;;5002520;28;20004;-80
2021/06/24 05:06:41;;;;;;;;;;;17.20;99.90;;;;;;4992364;28;20024;-80
2021/06/24 05:09:07;;;;;;;;;;;17.30;99.90;;;;;;4995673;28;20077;-80
2021/06/24 05:11:32;;;;;;;;;;;17.30;99.90;;;;;;4991145;28;20462;-79
2021/06/24 05:13:58;;;;;;;;;;;17.30;99.90;;;;;;4992021;28;24066;-80
2021/06/24 05:16:24;;;;;;;;;;;17.20;99.90;;;;;;4993380;28;19944;-80
2021/06/24 05:18:49;;;;;;;;;;;17.20;99.90;;;;;;4997901;28;24079;-80
2021/06/24 05:21:16;;;;;;;;;;;17.20;99.90;;;;;;4991427;28;20039;-80
2021/06/24 05:23:44;;;;;;;;;;;17.20;99.90;;;;;;4991016;28;20018;-80
2021/06/24 05:26:10;;;;;;;;;;;17.20;99.90;;;;;;4990851;28;19913;-80
2021/06/24 05:28:35;;;;;;;;;;;17.30;99.90;;;;;;4995378;28;19909;-80
2021/06/24 05:31:02;;;;;;;;;;;17.30;99.90;;;;;;5014163;28;19915;-80
2021/06/24 05:33:27;;;;;;;;;;;17.20;99.90;;;;;;5017550;28;20067;-79
2021/06/24 05:35:53;;;;;;;;;;;17.00;99.90;;;;;;5011248;28;20088;-79
2021/06/24 05:38:18;;;;;;;;;;;17.00;99.90;;;;;;5023874;28;20421;-79
2021/06/24 05:40:45;;;;;;;;;;;17.00;99.90;;;;;;4991101;28;25088;-80
2021/06/24 05:43:11;;;;;;;;;;;17.20;99.90;;;;;;4990240;28;19906;-80
2021/06/24 05:45:36;;;;;;;;;;;17.30;99.90;;;;;;4989901;28;24081;-80
2021/06/24 05:48:02;;;;;;;;;;;17.40;99.90;;;;;;5005859;28;19925;-80
2021/06/24 05:50:27;;;;;;;;;;;17.40;99.90;;;;;;5010662;28;25113;-80
2021/06/24 05:52:54;;;;;;;;;;;17.40;99.90;;;;;;5009350;28;25141;-79
2021/06/24 05:55:20;;;;;;;;;;;17.40;99.90;;;;;;5011983;28;19947;-80
2021/06/24 05:57:45;;;;;;;;;;;17.40;99.90;;;;;;5012425;28;20356;-80
2021/06/24 06:00:13;;;;;;;;;;;17.60;99.90;;;;;;5027098;28;24054;-80
2021/06/24 06:02:39;;;;;;;;;;;17.60;99.90;;;;;;5010376;28;19905;-80
2021/06/24 06:05:04;;;;;;;;;;;17.60;99.90;;;;;;5010632;28;19905;-80
2021/06/24 06:07:31;;;;;;;;;;;17.70;99.90;;;;;;5011085;28;20035;-80
2021/06/24 06:09:56;;;;;;;;;;;17.60;99.90;;;;;;5010878;28;19917;-79
2021/06/24 06:12:22;;;;;;;;;;;17.70;99.90;;;;;;5012996;28;20067;-81
2021/06/24 06:14:47;;;;;;;;;;;17.80;99.90;;;;;;5010584;28;20371;-80
2021/06/24 06:17:13;;;;;;;;;;;17.80;99.90;;;;;;5003860;28;20025;-80
2021/06/24 06:19:38;;;;;;;;;;;17.80;99.90;;;;;;4997471;28;19927;-80
2021/06/24 06:22:04;;;;;;;;;;;17.70;99.90;;;;;;5011377;28;20036;-80
2021/06/24 06:24:30;;;;;;;;;;;17.80;99.90;;;;;;5009609;28;19909;-80
2021/06/24 06:26:55;;;;;;;;;;;17.90;99.90;;;;;;5010442;28;19996;-81
2021/06/24 06:29:21;;;;;;;;;;;18.00;99.90;;;;;;5012246;28;20034;-81
2021/06/24 06:31:46;;;;;;;;;;;18.10;99.90;;;;;;5009978;28;19906;-80
2021/06/24 06:34:11;;;;;;;;;;;18.10;99.90;;;;;;5010966;28;20319;-80
2021/06/24 06:36:37;;;;;;;;;;;18.10;99.90;;;;;;5010355;28;19909;-80
2021/06/24 06:39:03;;;;;;;;;;;18.00;99.90;;;;;;5026442;28;19905;-80
2021/06/24 06:41:29;;;;;;;;;;;18.00;99.90;;;;;;5010180;28;20340;-80
2021/06/24 06:43:54;;;;;;;;;;;17.90;99.90;;;;;;5012237;28;20070;-81
2021/06/24 06:46:20;;;;;;;;;;;17.90;99.90;;;;;;5011522;28;19905;-82
2021/06/24 06:48:46;;;;;;;;;;;18.00;99.90;;;;;;5029271;28;19955;-81
2021/06/24 06:51:11;;;;;;;22.05;14.15;;;18.00;99.90;;;;;;5017191;28;19916;-81
2021/06/24 06:53:37;;;;;;;21.20;14.43;;;18.00;99.90;;;;;;5027174;28;20477;-80
2021/06/24 06:56:04;;;;;;;18.10;14.02;;;18.10;99.90;;;;;;5012201;28;20477;-80
2021/06/24 06:58:30;;;;;;;18.05;13.55;;;18.00;99.90;;;;;;5013111;28;20041;-81
2021/06/24 07:00:55;;;;;;;16.00;13.02;;;18.00;99.90;;;;;;5018757;28;20026;-82
2021/06/24 07:03:21;;;;;;;17.80;13.25;;;18.10;99.90;;;;;;5038518;28;20029;-82
2021/06/24 07:05:46;;;;;;;16.85;13.30;;;18.20;99.90;;;;;;5018891;28;20018;-81
2021/06/24 07:08:12;;;;;;;15.13;12.55;;;18.10;99.90;;;;;;5014540;28;20496;-81
2021/06/24 07:10:38;;;;;;;16.67;12.90;;;18.00;99.90;;;;;;5011049;28;20179;-81
2021/06/24 07:13:04;;;;;;;19.73;13.27;;;18.00;99.90;;;;;;5012116;28;20034;-81
2021/06/24 07:15:30;;;;;;;18.20;12.65;;;18.00;99.90;;;;;;5012880;28;20030;-81
2021/06/24 07:17:55;;;;;;;15.05;12.13;;;18.00;99.90;;;;;;5017860;28;20018;-81
2021/06/24 07:20:21;;;;;;;17.13;12.65;;;18.00;99.90;;;;;;5016107;28;20443;-81
2021/06/24 07:22:47;;;;;;;20.63;12.98;;;18.00;99.90;;;;;;5029377;28;20033;-80
2021/06/24 07:25:17;;;;;;;;;;;18.00;99.90;;;;;;4995493;28;20563;-81
2021/06/24 07:27:44;;;;;;;;;;;18.10;99.90;;;;;;4996256;28;24138;-80
2021/06/24 07:30:09;;;;;;;;;;;18.10;99.90;;;;;;4996930;28;19906;-81
2021/06/24 07:32:35;;;;;;;;;;;18.30;99.90;;;;;;4995010;28;19906;-81
2021/06/24 07:35:00;;;;;;;;;;;18.40;99.90;;;;;;5000799;28;20353;-82
2021/06/24 07:37:26;;;;;;;;;;;18.50;99.90;;;;;;5002205;28;19910;-80
2021/06/24 07:39:51;;;;;;;;;;;18.70;99.90;;;;;;4994697;28;19910;-81
2021/06/24 07:42:19;;;;;;;;;;;18.70;99.90;;;;;;4993890;28;24147;-80
2021/06/24 07:44:45;;;;;;;;;;;18.60;99.90;;;;;;4995351;28;19956;-80
2021/06/24 07:47:10;;;;;;;;;;;18.80;99.90;;;;;;5001234;28;19906;-82
2021/06/24 07:49:36;;;;;;;;;;;19.00;99.90;;;;;;5003642;28;19913;-80
2021/06/24 07:52:01;;;;;;;;;;;19.30;99.90;;;;;;4997400;28;19964;-82
2021/06/24 07:54:27;;;;;;;19.02;13.05;;;20.30;99.90;;;;;;5007147;28;19933;-82
2021/06/24 07:56:55;;;;;;;14.48;12.15;;;20.90;99.90;;;;;;5006721;28;20030;-81
2021/06/24 07:59:20;;;;;;;;;;;20.80;99.90;;;;;;5008390;28;19910;-82
2021/06/24 08:01:46;;;;;;;16.10;11.80;;;20.70;99.90;;;;;;5006851;28;20067;-81
2021/06/24 08:04:11;;;;;;;;;;;20.60;99.90;;;;;;5007912;28;19906;-82
2021/06/24 08:06:37;;;;;;;17.80;12.35;;;20.30;99.90;;;;;;5007350;28;19957;-81
2021/06/24 08:09:04;;;;;;;;;;;20.00;99.90;;;;;;5015081;28;20291;-82
2021/06/24 08:11:30;;;;;;;;;;;20.00;99.90;;;;;;5015824;28;20447;-83
2021/06/24 08:13:55;;;;;;;;;;;20.30;99.90;;;;;;5014908;28;19929;-82
2021/06/24 08:16:21;;;;;;;;;;;20.20;99.90;;;;;;5014919;28;20416;-83
2021/06/24 08:18:47;;;;;;;;;;;20.10;99.90;;;;;;5015684;28;20032;-83
2021/06/24 08:21:12;;;;;;;;;;;20.10;99.90;;;;;;5010440;28;20050;-82
2021/06/24 08:23:38;;;;;;;;;;;20.40;99.90;;;;;;5011771;28;20040;-84
2021/06/24 08:26:04;;;;;;;;;;;20.90;99.90;;;;;;5019929;28;20049;-82
2021/06/24 08:28:30;;;;;;;;;;;21.10;99.90;;;;;;4998076;28;19917;-81
2021/06/24 08:30:56;;;;;;;;;;;21.20;99.90;;;;;;5006133;28;20029;-82
2021/06/24 08:33:25;;;;;;;17.65;12.85;;;21.30;99.90;;;;;;5004857;28;20116;-82
2021/06/24 08:35:50;;;;;;;;;;;21.30;99.90;;;;;;5007597;28;19917;-82
2021/06/24 08:38:16;;;;;;;;;;;21.30;99.90;;;;;;5014307;28;20090;-82
2021/06/24 08:40:41;;;;;;;;;;;21.30;99.90;;;;;;5014291;28;20231;-82
2021/06/24 08:43:08;;;;;;;;;;;21.20;99.90;;;;;;5013965;28;20048;-82
2021/06/24 08:45:33;;;;;;;;;;;21.20;99.90;;;;;;5012098;28;20377;-82
2021/06/24 08:47:59;;;;;;;;;;;21.30;99.90;;;;;;4993289;28;20146;-82
2021/06/24 08:50:24;;;;;;;;;;;21.40;99.90;;;;;;4994687;28;20046;-82
2021/06/24 08:52:50;;;;;;;;;;;21.60;99.90;;;;;;4996780;28;20106;-82
2021/06/24 08:55:17;;;;;;;;;;;21.70;99.90;;;;;;5010430;28;20526;-82
2021/06/24 08:57:42;;;;;;;;;;;21.60;99.90;;;;;;5017606;28;19993;-83
2021/06/24 09:00:09;;;;;;;;;;;21.40;99.90;;;;;;5015636;28;20056;-82
2021/06/24 09:02:47;;;;;;;;;;;21.10;99.90;;;;;;5014605;28;20025;-83
2021/06/24 09:05:13;;;;;;;;;;;20.80;99.90;;;;;;5015772;28;20058;-83
2021/06/24 09:07:48;;;;;;;;;;;20.90;99.90;;;;;;5016813;28;20025;-82
2021/06/24 09:10:13;;;;;;;;;;;20.90;99.90;;;;;;5016190;28;20050;-82
2021/06/24 09:12:48;;;;;;;;;;;20.90;99.90;;;;;;5014984;28;19913;-82
2021/06/24 09:15:14;;;;;;;;;;;20.90;99.90;;;;;;5014917;28;20026;-83
2021/06/24 09:17:41;;;;;;;;;;;20.80;99.90;;;;;;5014793;28;19931;-82
2021/06/24 09:20:18;;;;;;;;;;;20.70;99.90;;;;;;5014110;28;20040;-82
2021/06/24 09:23:02;;;;;;;;;;;20.70;99.90;;;;;;5014541;28;19959;-83
2021/06/24 09:25:28;;;;;;;;;;;20.60;99.90;;;;;;5011645;28;19913;-82
2021/06/24 09:27:53;;;;;;;;;;;20.60;99.90;;;;;;5010912;28;19924;-82
2021/06/24 09:30:26;;;;;;;;;;;20.70;99.90;;;;;;5012488;28;20402;-82
2021/06/24 09:32:52;;;;;;;;;;;20.60;99.90;;;;;;5007555;28;19914;-81
2021/06/24 09:35:22;;;;;;;;;;;20.50;99.90;;;;;;5011592;28;19964;-82
2021/06/24 09:38:07;;;;;;;;;;;20.50;99.90;;;;;;5012294;28;19905;-82
2021/06/24 09:40:35;;;;;;;;;;;20.60;99.90;;;;;;5012198;28;19905;-82
2021/06/24 09:43:01;;;;;;;;;;;20.80;99.90;;;;;;5012709;28;19912;-82
2021/06/24 09:45:26;;;;;;;;;;;20.80;99.90;;;;;;5012697;28;20323;-82
2021/06/24 09:48:05;;;;;;;;;;;20.90;99.90;;;;;;5015860;28;19911;-84
2021/06/24 09:50:31;;;;;;;;;;;21.10;99.90;;;;;;5012303;28;19911;-83
2021/06/24 09:53:06;;;;;;;;;;;21.20;99.90;;;;;;5012997;28;19995;-82
2021/06/24 09:55:33;;;;;;;;;;;21.30;99.90;;;;;;5028798;28;20418;-82
2021/06/24 09:58:15;;;;;;;;;;;21.50;99.90;;;;;;5016370;28;20287;-82
2021/06/24 10:00:51;;;;;;;;;;;21.50;99.90;;;;;;5014654;28;20403;-82
2021/06/24 10:03:17;;;;;;;;;;;21.60;99.90;;;;;;5012859;28;19909;-82
2021/06/24 10:05:44;;;;;;;;;;;21.50;99.90;;;;;;5013709;28;20043;-82
2021/06/24 10:08:10;;;;;;;;;;;21.60;99.90;;;;;;5014029;28;20478;-82
2021/06/24 10:10:36;;;;;;;;;;;21.70;99.90;;;;;;5014783;28;19996;-81
2021/06/24 10:13:02;;;;;;;;;;;21.90;99.90;;;;;;5013284;28;19907;-82
2021/06/24 10:15:28;;;;;;;;;;;22.00;99.90;;;;;;5014353;28;20240;-82
2021/06/24 10:17:55;;;;;;;;;;;21.70;99.90;;;;;;5012980;28;20018;-82
2021/06/24 10:20:21;;;;;;;;;;;21.90;99.90;;;;;;5014767;28;20015;-82
2021/06/24 10:22:50;;;;;;;;;;;22.10;99.90;;;;;;5012577;28;20007;-82
2021/06/24 10:25:16;;;;;;;;;;;22.10;99.90;;;;;;5014812;28;24078;-82
2021/06/24 10:27:46;;;;;;;;;;;22.10;99.90;;;;;;5030218;28;24057;-82
2021/06/24 10:30:20;;;;;;;;;;;22.30;99.90;;;;;;5014461;28;19910;-82
2021/06/24 10:33:00;;;;;;;;;;;22.30;99.90;;;;;;5014399;28;19905;-82
2021/06/24 10:35:30;;;;;;;;;;;22.40;99.90;;;;;;5018649;28;20038;-82
2021/06/24 10:37:56;;;;;;;;;;;22.90;99.90;;;;;;5018480;28;19951;-83
2021/06/24 10:40:21;;;;;;;;;;;23.40;99.90;;;;;;5018335;28;25131;-82
2021/06/24 10:42:51;;;;;;;;;;;24.20;99.90;;;;;;5018865;28;20032;-83
2021/06/24 10:45:17;;;;;;;;;;;23.90;99.90;;;;;;5016124;28;19959;-83
2021/06/24 10:47:43;;;;;;;;;;;24.10;99.90;;;;;;5020167;28;19913;-82
2021/06/24 10:50:37;;;;;;;;;;;24.00;99.90;;;;;;5021179;28;19936;-82
2021/06/24 10:53:02;;;;;;;;;;;23.80;99.90;;;;;;5017364;28;19916;-82
2021/06/24 10:55:31;;;;;;;;;;;23.40;99.90;;;;;;5018979;28;19952;-81
2021/06/24 10:57:57;;;;;;;;;;;23.80;99.90;;;;;;5018876;28;25052;-82
2021/06/24 11:00:38;;;;;;;;;;;24.40;99.90;;;;;;5016123;28;20073;-82
2021/06/24 11:03:05;;;;;;;;;;;24.70;99.90;;;;;;5010104;28;25119;-81
2021/06/24 11:05:44;;;;;;;;;;;24.70;99.90;;;;;;5012078;28;24081;-81
2021/06/24 11:08:17;;;;;;;;;;;24.30;99.90;;;;;;5010642;28;19909;-81
2021/06/24 11:11:01;;;;;;;;;;;23.90;99.90;;;;;;5012185;28;19913;-82
2021/06/24 11:13:39;;;;;;;;;;;24.30;99.90;;;;;;5012574;28;19909;-83
2021/06/24 11:16:15;;;;;;;;;;;24.20;99.90;;;;;;5006521;28;20034;-83
2021/06/24 11:18:40;;;;;;;;;;;23.40;99.90;;;;;;5011726;28;19909;-82
2021/06/24 11:21:07;;;;;;;;;;;23.10;99.90;;;;;;5011932;28;20872;-82
2021/06/24 11:23:35;;;;;;;;;;;22.70;99.90;;;;;;5002523;28;19920;-82
2021/06/24 11:26:17;;;;;;;;;;;22.30;99.90;;;;;;4997819;28;19928;-83
2021/06/24 11:32:31;;;;;;;;;;;21.70;99.90;;;;;;5008272;28;20384;-83
2021/06/24 11:37:15;;;;;;;;;;;21.70;99.90;;;;;;5000263;28;19914;-82
2021/06/24 11:39:42;;;;;;;;;;;22.30;99.90;;;;;;5014650;28;19914;-82
2021/06/24 11:42:11;;;;;;;;;;;22.70;99.90;;;;;;5002642;28;19906;-81
2021/06/24 11:44:39;;;;;;;;;;;23.00;99.90;;;;;;5000157;28;19905;-82
2021/06/24 11:47:09;;;;;;;13.13;9.95;;;23.10;99.90;;;;;;5008431;28;19952;-82
2021/06/24 12:01:09;;;;;;;;;;;25.00;99.90;;;;;;4997785;28;19944;-82
2021/06/24 12:03:35;;;;;;;9.67;7.97;;;24.80;99.90;;;;;;4997202;28;20028;-83
2021/06/24 12:06:01;;;;;;;8.50;7.10;;;24.90;99.90;;;;;;4998578;28;20030;-82
2021/06/24 12:08:28;;;;;;;;;;;25.10;99.90;;;;;;4999459;28;20320;-83
2021/06/24 12:11:04;;;;;;;;;;;25.00;99.90;;;;;;5002220;28;20058;-82
2021/06/24 12:13:30;;;;;;;;;;;24.50;99.90;;;;;;5002558;28;19913;-82
2021/06/24 12:15:56;;;;;;;;;;;24.20;99.90;;;;;;5002214;28;20029;-83
2021/06/24 12:18:34;;;;;;;;;;;24.20;99.90;;;;;;5004275;28;20108;-82
2021/06/24 12:21:01;;;;;;;;;;;24.30;99.90;;;;;;5007172;28;20046;-81
2021/06/24 12:23:27;;;;;;;;;;;24.20;99.90;;;;;;5010388;28;20024;-82
2021/06/24 12:25:52;;;;;;;;;;;24.10;99.90;;;;;;5017455;28;19909;-82
2021/06/24 12:28:18;;;;;;;;;;;24.40;99.90;;;;;;5035552;28;19910;-82
2021/06/24 12:30:44;;;;;;;;;;;24.80;99.90;;;;;;5018686;28;20037;-82
2021/06/24 12:33:11;;;;;;;;;;;25.00;99.90;;;;;;5017235;28;20062;-81
2021/06/24 12:35:47;;;;;;;;;;;25.40;99.90;;;;;;5013032;28;20051;-82
2021/06/24 12:38:13;;;;;;;;;;;26.70;99.90;;;;;;5030983;28;19909;-83
2021/06/24 12:40:40;;;;;;;;;;;26.80;99.90;;;;;;5014723;28;20411;-81
2021/06/24 12:43:06;;;;;;;;;;;25.90;99.90;;;;;;5014278;28;24076;-83
2021/06/24 12:45:33;;;;;;;;;;;24.50;99.90;;;;;;5029744;28;20040;-83
2021/06/24 12:47:58;;;;;;;;;;;23.80;99.90;;;;;;5013455;28;20023;-81
2021/06/24 12:50:31;;;;;;;7.67;5.10;;;23.60;99.90;;;;;;5014577;28;25136;-83
2021/06/24 12:52:58;;;;;;;7.90;6.10;;;23.50;99.90;;;;;;5015613;28;20481;-82
2021/06/24 12:55:43;;;;;;;;;;;23.20;99.90;;;;;;5014481;28;19909;-82
2021/06/24 12:58:14;;;;;;;;;;;22.70;99.90;;;;;;5016481;28;20430;-81
2021/06/24 13:00:48;;;;;;;;;;;22.40;99.90;;;;;;5015461;28;20014;-82
2021/06/24 13:03:13;;;;;;;;;;;22.40;99.90;;;;;;5016454;28;19909;-83
2021/06/24 13:05:39;;;;;;;;;;;22.30;99.90;;;;;;5014974;28;19999;-83
2021/06/24 13:08:06;;;;;;;;;;;22.20;99.90;;;;;;5015523;28;19905;-84
2021/06/24 13:10:47;;;;;;;;;;;22.00;99.90;;;;;;5014824;28;20320;-83
2021/06/24 13:13:29;;;;;;;;;;;21.80;99.90;;;;;;5013982;28;20458;-84
2021/06/24 13:15:55;;;;;;;;;;;21.60;99.90;;;;;;5016944;28;19909;-83
2021/06/24 13:18:21;;;;;;;;;;;21.60;99.90;;;;;;5017041;28;19996;-83
2021/06/24 13:20:56;;;;;;;;;;;21.60;99.90;;;;;;5018533;28;19928;-82
2021/06/24 13:23:31;;;;;;;;;;;21.50;99.90;;;;;;5010200;28;20347;-81
2021/06/24 13:26:07;;;;;;;;;;;21.60;99.90;;;;;;4997657;28;19997;-83
2021/06/24 13:28:35;;;;;;;;;;;21.60;99.90;;;;;;4997284;28;19905;-83
2021/06/24 13:31:01;;;;;;;3.15;2.35;;;21.50;99.90;;;;;;4995846;28;19906;-85
2021/06/24 13:33:34;;;;;;;2.80;2.60;;;21.30;99.90;;;;;;4998351;28;20033;-81
2021/06/24 13:36:00;;;;;;;2.30;2.10;;;21.40;99.90;;;;;;5012820;28;20031;-82
2021/06/24 13:38:25;;;;;;;3.03;2.70;;;21.30;99.90;;;;;;5014311;28;20073;-84
2021/06/24 13:40:52;;;;;;;;;;;21.30;99.90;;;;;;4996753;28;20029;-84
2021/06/24 13:43:18;;;;;;;;;;;21.40;99.90;;;;;;4997671;28;19913;-83
2021/06/24 13:45:45;;;;;;;;;;;21.60;99.90;;;;;;4998896;28;19906;-84
2021/06/24 13:48:13;;;;;;;;;;;21.70;99.90;;;;;;4994311;28;19906;-82
2021/06/24 13:50:38;;;;;;;;;;;21.70;99.90;;;;;;4996549;28;19909;-81
2021/06/24 13:53:10;;;;;;;;;;;21.80;99.90;;;;;;5012281;28;19996;-83
2021/06/24 13:55:39;;;;;;;2.70;2.20;;;21.80;99.90;;;;;;5012518;28;20284;-82
2021/06/24 13:58:05;;;;;;;;;;;21.80;99.90;;;;;;5012538;28;19909;-81
2021/06/24 14:00:36;;;;;;;;;;;21.90;99.90;;;;;;5013989;28;19906;-81
2021/06/24 14:03:01;;;;;;;;;;;21.80;99.90;;;;;;5012606;28;19905;-82
2021/06/24 14:05:27;;;;;;;;;;;21.80;99.90;;;;;;5012529;28;19906;-82
2021/06/24 14:07:52;;;;;;;;;;;21.80;99.90;;;;;;5013279;28;19909;-82
2021/06/24 14:10:18;;;;;;;;;;;21.90;99.90;;;;;;5013561;28;19967;-82
2021/06/24 14:12:43;;;;;;;;;;;21.90;99.90;;;;;;5016094;28;19918;-83
2021/06/24 14:15:09;;;;;;;;;;;22.00;99.90;;;;;;5018054;28;20269;-83